Time;durP1;ratioP1;P1;durP2;ratioP2;P2;SDS_P1;SDS_P2;PMS_P1;PMS_P2;Temp;Humidity;BMP_temperature;BMP_pressure;BME280_temperature;BME280_humidity;BME280_pressure;Samples;Min_cycle;Max_cycle;Signal;HPM_P1;HPM_P2
2022/08/04 00:01:47;;;;;;;6.47;2.40;;;;;;;19.65;59.68;99816.13;1707690;81;20943;-63
2022/08/04 00:04:28;;;;;;;6.37;2.77;;;;;;;19.65;59.57;99822.75;1708825;83;22034;-62
2022/08/04 00:07:05;;;;;;;3.20;2.35;;;;;;;19.65;59.49;99824.54;1703122;81;21429;-62
2022/08/04 00:09:55;;;;;;;5.12;2.30;;;;;;;19.67;59.45;99817.34;1683348;83;21563;-62
2022/08/04 00:12:25;;;;;;;15.15;2.87;;;;;;;19.67;59.35;99823.47;1690027;83;20930;-62
2022/08/04 00:14:57;;;;;;;5.70;2.00;;;;;;;19.67;59.32;99824.80;1705915;82;20946;-62
2022/08/04 00:17:40;;;;;;;3.52;2.40;;;;;;;19.70;59.27;99830.33;1705484;83;21915;-64
2022/08/04 00:20:09;;;;;;;10.58;2.27;;;;;;;19.70;59.16;99827.68;1706526;82;21500;-62
2022/08/04 00:22:39;;;;;;;2.70;1.98;;;;;;;19.71;59.08;99830.67;1685166;83;22020;-62
2022/08/04 00:25:06;;;;;;;2.87;1.90;;;;;;;19.69;59.02;99833.95;1717260;83;20950;-62
2022/08/04 00:27:33;;;;;;;7.65;2.70;;;;;;;19.71;59.02;99833.33;1656931;84;21615;-62
2022/08/04 00:29:59;;;;;;;3.58;2.40;;;;;;;19.73;58.93;99834.53;1680802;84;21266;-62
2022/08/04 00:32:26;;;;;;;4.78;2.17;;;;;;;19.74;58.89;99826.44;1706457;82;21471;-62
2022/08/04 00:34:56;;;;;;;4.30;2.22;;;;;;;19.75;58.82;99822.84;1718745;82;20902;-62
2022/08/04 00:37:24;;;;;;;5.12;2.10;;;;;;;19.77;58.78;99828.83;1725545;82;21038;-62
2022/08/04 00:39:53;;;;;;;6.47;2.22;;;;;;;19.76;58.67;99826.33;1718494;83;21384;-62
2022/08/04 00:42:45;;;;;;;4.70;2.22;;;;;;;19.76;58.63;99819.21;1713332;82;21926;-62
2022/08/04 00:45:32;;;;;;;5.08;2.12;;;;;;;19.75;58.59;99820.19;1720432;81;21076;-62
2022/08/04 00:48:14;;;;;;;;;;;;;;;19.73;58.47;99818.15;1730059;81;20964;-62
2022/08/04 00:51:01;;;;;;;3.42;2.00;;;;;;;19.70;58.40;99814.44;1733641;81;20183;-62
2022/08/04 00:53:56;;;;;;;;;;;;;;;19.68;58.39;99809.74;1672900;84;20962;-62
2022/08/04 00:57:17;;;;;;;3.75;1.90;;;;;;;19.65;58.31;99808.64;1647988;85;21989;-62
2022/08/04 00:59:54;;;;;;;3.35;2.22;;;;;;;19.63;58.26;99810.58;1637289;85;21568;-63
2022/08/04 01:02:51;;;;;;;3.25;1.92;;;;;;;19.61;58.24;99807.23;1643159;85;21531;-62
2022/08/04 01:05:35;;;;;;;3.98;1.98;;;;;;;19.61;58.15;99809.88;1637746;85;21527;-62
2022/08/04 01:08:46;;;;;;;3.98;2.27;;;;;;;19.60;58.13;99813.48;1635743;86;20958;-62
2022/08/04 01:11:45;;;;;;;7.92;2.50;;;;;;;19.60;58.12;99809.51;1641097;85;21702;-62
2022/08/04 01:14:45;;;;;;;4.40;2.15;;;;;;;19.60;58.11;99805.53;1632482;85;20958;-62
2022/08/04 01:17:37;;;;;;;10.40;2.52;;;;;;;19.60;58.05;99806.86;1640287;85;21788;-62
2022/08/04 01:20:09;;;;;;;7.58;2.65;;;;;;;19.61;58.00;99803.27;1634806;85;20970;-62
2022/08/04 01:23:08;;;;;;;3.92;2.22;;;;;;;19.61;57.94;99804.59;1638175;85;20994;-62
2022/08/04 01:26:22;;;;;;;6.55;1.90;;;;;;;19.61;57.87;99808.56;1642726;85;21419;-62
2022/08/04 01:29:10;;;;;;;2.75;2.00;;;;;;;19.60;57.86;99812.16;1641868;85;21053;-62
2022/08/04 01:32:01;;;;;;;8.03;2.72;;;;;;;19.59;57.81;99811.81;1664625;84;20954;-62
2022/08/04 01:34:44;;;;;;;3.50;2.70;;;;;;;19.58;57.81;99812.79;1716074;82;20954;-62
2022/08/04 01:37:30;;;;;;;8.58;3.30;;;;;;;19.57;57.76;99813.73;1718649;82;21381;-62
2022/08/04 01:40:06;;;;;;;7.90;2.40;;;;;;;19.56;57.78;99812.06;1710514;82;21155;-61
2022/08/04 01:42:36;;;;;;;2.53;2.33;;;;;;;19.54;57.69;99810.02;1711791;82;20942;-62
2022/08/04 01:45:07;;;;;;;4.83;2.42;;;;;;;19.51;57.67;99811.61;1713492;81;21567;-62
2022/08/04 01:47:37;;;;;;;2.37;2.10;;;;;;;19.49;57.67;99810.88;1719242;82;20937;-62
2022/08/04 01:50:12;;;;;;;3.47;2.50;;;;;;;19.45;57.68;99805.84;1718632;82;20895;-62
2022/08/04 01:52:42;;;;;;;4.45;2.50;;;;;;;19.44;57.68;99806.83;1716458;82;21568;-62
2022/08/04 01:55:12;;;;;;;6.00;2.83;;;;;;;19.42;57.64;99802.13;1719265;81;21535;-62
2022/08/04 01:57:45;;;;;;;5.42;2.42;;;;;;;19.40;57.64;99804.06;1723122;82;21941;-62
2022/08/04 02:00:16;;;;;;;7.03;2.92;;;;;;;19.37;57.62;99802.98;1719264;82;20918;-62
2022/08/04 02:02:46;;;;;;;4.35;2.33;;;;;;;19.35;57.60;99802.30;1720388;82;21471;-62
2022/08/04 02:05:15;;;;;;;3.62;2.35;;;;;;;19.33;57.58;99798.93;1721163;82;21070;-62
2022/08/04 02:08:05;;;;;;;3.50;2.17;;;;;;;19.32;57.60;99805.17;1718625;82;20979;-62
2022/08/04 02:10:46;;;;;;;5.60;2.33;;;;;;;19.32;57.58;99805.66;1712260;82;20911;-62
2022/08/04 02:13:39;;;;;;;2.87;2.37;;;;;;;19.31;57.52;99811.44;1714636;82;20890;-62
2022/08/04 02:16:49;;;;;;;4.78;2.20;;;;;;;19.29;57.52;99807.23;1710530;82;20990;-62
2022/08/04 02:19:34;;;;;;;3.60;2.25;;;;;;;19.24;57.46;99804.99;1674645;84;21055;-62
2022/08/04 02:22:09;;;;;;;3.08;2.25;;;;;;;19.22;57.45;99812.21;1678943;84;21019;-62
2022/08/04 02:24:41;;;;;;;5.58;2.50;;;;;;;19.19;57.40;99804.52;1648509;84;20918;-62
2022/08/04 02:27:10;;;;;;;4.67;2.45;;;;;;;19.18;57.42;99802.82;1671847;84;20923;-62
2022/08/04 02:29:53;;;;;;;3.20;2.50;;;;;;;19.15;57.36;99800.43;1673181;84;20982;-62
2022/08/04 02:32:29;;;;;;;3.00;2.30;;;;;;;19.13;57.37;99801.03;1668064;84;21056;-62
2022/08/04 02:35:15;;;;;;;7.33;2.30;;;;;;;19.11;57.33;99799.02;1664816;83;20956;-62
2022/08/04 02:37:46;;;;;;;2.87;2.60;;;;;;;19.10;57.37;99794.66;1678093;84;21023;-62
2022/08/04 02:40:18;;;;;;;7.85;2.85;;;;;;;19.06;57.34;99793.25;1671581;84;20942;-62
2022/08/04 02:42:45;;;;;;;10.08;2.90;;;;;;;19.01;57.36;99791.80;1674801;83;20971;-62
2022/08/04 02:45:13;;;;;;;6.22;2.77;;;;;;;19.00;57.34;99788.80;1675668;84;21070;-62
2022/08/04 02:47:41;;;;;;;5.87;2.70;;;;;;;18.97;57.33;99790.38;1681649;84;20943;-62
2022/08/04 02:50:10;;;;;;;3.27;2.83;;;;;;;18.96;57.35;99783.42;1696905;82;21498;-62
2022/08/04 02:52:39;;;;;;;5.37;3.22;;;;;;;18.96;57.36;99786.52;1694484;82;21044;-62
2022/08/04 02:55:08;;;;;;;6.37;3.00;;;;;;;18.92;57.35;99781.97;1713348;82;20955;-62
2022/08/04 02:57:37;;;;;;;3.72;2.92;;;;;;;18.88;57.32;99783.20;1716238;82;21228;-62
2022/08/04 03:00:12;;;;;;;4.70;2.75;;;;;;;18.84;57.33;99785.72;1723320;82;20950;-62
2022/08/04 03:03:10;;;;;;;5.83;2.60;;;;;;;18.80;57.38;99785.63;1734700;81;21301;-62
2022/08/04 03:06:06;;;;;;;7.53;2.62;;;;;;;18.77;57.41;99785.88;1711821;83;21468;-62
2022/08/04 03:09:03;;;;;;;5.33;2.72;;;;;;;18.74;57.38;99779.50;1731983;81;20905;-62
2022/08/04 03:12:03;;;;;;;6.45;3.00;;;;;;;18.72;57.40;99782.72;1731733;81;21012;-62
2022/08/04 03:14:54;;;;;;;3.30;2.50;;;;;;;18.72;57.40;99776.10;1729929;81;20936;-62
2022/08/04 03:17:38;;;;;;;11.30;3.30;;;;;;;18.72;57.42;99786.20;1734548;81;20918;-62
2022/08/04 03:20:59;;;;;;;15.40;2.83;;;;;;;18.75;57.47;99786.47;1730853;81;20966;-62
2022/08/04 03:23:52;;;;;;;7.72;3.30;;;;;;;18.78;57.49;99784.89;1729797;81;20979;-62
2022/08/04 03:26:54;;;;;;;7.58;3.22;;;;;;;18.82;57.47;99781.05;1734749;81;21057;-62
2022/08/04 03:29:48;;;;;;;4.90;2.87;;;;;;;18.86;57.47;99789.58;1733155;81;20954;-62
2022/08/04 03:32:35;;;;;;;9.68;3.20;;;;;;;18.89;57.53;99784.87;1736162;81;21511;-62
2022/08/04 03:35:25;;;;;;;;;;;;;;;18.97;57.58;99785.58;1674923;84;20931;-62
2022/08/04 03:38:22;;;;;;;8.38;3.22;;;;;;;19.25;57.79;99788.63;1675604;84;20145;-62
2022/08/04 03:41:15;;;;;;;15.00;3.25;;;;;;;19.90;57.88;99784.92;1673151;84;21114;-62
2022/08/04 03:43:58;;;;;;;7.50;3.00;;;;;;;20.71;57.74;99781.88;1644928;85;20932;-62
2022/08/04 03:46:52;;;;;;;10.15;3.17;;;;;;;21.30;57.32;99786.77;1643079;85;21489;-62
2022/08/04 03:49:40;;;;;;;9.30;2.65;;;;;;;21.59;57.05;99785.48;1644645;85;21583;-62
2022/08/04 03:55:28;;;;;;;7.33;2.95;;;;;;;21.82;56.78;99790.48;1596316;88;21919;-62
2022/08/04 03:58:31;;;;;;;8.68;2.52;;;;;;;21.97;56.70;99791.69;1558218;90;20925;-62
2022/08/04 04:01:33;;;;;;;6.55;3.33;;;;;;;22.77;56.82;99786.77;1552991;90;20980;-62
2022/08/04 04:04:50;;;;;;;5.15;2.62;;;;;;;23.68;56.18;99794.63;1557173;90;21052;-63
2022/08/04 04:07:44;;;;;;;8.18;3.05;;;;;;;24.55;56.00;99790.19;1547941;92;20993;-63
2022/08/04 04:10:36;;;;;;;13.60;3.35;;;;;;;25.50;55.54;99789.91;1545383;91;20972;-62
2022/08/04 04:13:54;;;;;;;9.98;3.15;;;;;;;26.30;54.87;99792.67;1545767;91;21000;-63
2022/08/04 04:16:47;;;;;;;8.75;3.30;;;;;;;26.84;54.35;99792.78;1550492;91;21492;-63
2022/08/04 04:19:45;;;;;;;9.23;3.25;;;;;;;27.53;53.67;99792.84;1547335;91;21098;-62
2022/08/04 04:22:41;;;;;;;18.48;3.77;;;;;;;27.89;52.84;99794.36;1603100;87;21023;-63
2022/08/04 04:25:39;;;;;;;15.13;3.85;;;;;;;28.07;52.63;99786.49;1612087;88;21101;-63
2022/08/04 04:28:50;;;;;;;5.75;2.67;;;;;;;28.46;52.03;99790.78;1612157;87;21045;-63
2022/08/04 04:31:34;;;;;;;14.85;2.80;;;;;;;28.74;51.78;99778.31;1650729;85;20931;-64
2022/08/04 04:34:41;;;;;;;7.60;2.50;;;;;;;29.34;51.32;99786.19;1618164;87;21001;-63
2022/08/04 04:37:40;;;;;;;15.03;2.65;;;;;;;30.03;50.79;99783.66;1641686;85;20999;-63
2022/08/04 04:40:18;;;;;;;13.40;2.52;;;;;;;30.73;50.45;99778.23;1642617;85;20938;-63
2022/08/04 04:43:15;;;;;;;6.97;2.20;;;;;;;31.49;49.67;99782.58;1579663;89;20985;-62
2022/08/04 04:46:37;;;;;;;4.83;2.55;;;;;;;32.10;49.07;99782.34;1580556;89;21022;-63
2022/08/04 04:49:26;;;;;;;5.75;2.40;;;;;;;32.70;48.27;99779.44;1565625;90;21009;-64
2022/08/04 04:52:01;;;;;;;15.53;2.80;;;;;;;33.13;47.27;99780.97;1563946;90;20982;-62
2022/08/04 04:55:13;;;;;;;8.78;2.33;;;;;;;33.43;46.54;99777.11;1561301;90;21177;-62
2022/08/04 04:57:41;;;;;;;4.15;2.20;;;;;;;34.15;45.16;99784.02;1574565;90;21021;-62
2022/08/04 05:00:12;;;;;;;7.75;2.33;;;;;;;34.15;45.16;99784.02;1566328;90;20942;-62
2022/08/04 05:03:35;;;;;;;11.00;2.10;;;;;;;34.41;44.50;99788.30;1570426;90;21660;-62
2022/08/04 05:06:30;;;;;;;8.40;2.60;;;;;;;34.58;43.98;99783.12;1570586;90;21040;-64
2022/08/04 05:09:17;;;;;;;15.13;3.25;;;;;;;34.65;42.93;99781.17;1573510;88;21261;-64
2022/08/04 05:12:12;;;;;;;10.35;2.70;;;;;;;34.52;42.19;99779.41;1596015;87;21069;-63
2022/08/04 05:14:48;;;;;;;12.00;2.45;;;;;;;34.43;41.74;99789.73;1603139;87;20969;-63
2022/08/04 05:17:26;;;;;;;5.50;2.37;;;;;;;34.13;40.96;99786.13;1603170;87;21058;-63
2022/08/04 05:20:16;;;;;;;11.95;3.27;;;;;;;33.98;40.95;99787.28;1640108;82;20949;-63
2022/08/04 05:22:47;;;;;;;13.65;3.10;;;;;;;34.14;40.47;99785.06;1705224;83;22004;-63
2022/08/04 05:25:24;;;;;;;8.30;2.45;;;;;;;34.57;40.12;99792.32;1737517;81;20972;-63
2022/08/04 05:28:18;;;;;;;8.35;2.47;;;;;;;34.75;39.47;99786.85;1716083;82;20980;-64
2022/08/04 05:30:56;;;;;;;6.12;2.22;;;;;;;34.87;39.20;99785.03;1698627;82;20990;-64
2022/08/04 05:33:55;;;;;;;6.33;2.10;;;;;;;35.10;38.39;99788.91;1720092;82;21085;-62
2022/08/04 05:36:38;;;;;;;6.50;1.92;;;;;;;35.17;38.04;99786.91;1716723;82;21880;-62
2022/08/04 05:39:15;;;;;;;5.83;2.00;;;;;;;35.33;37.90;99786.25;1719428;82;20938;-62
2022/08/04 05:41:44;;;;;;;16.00;2.72;;;;;;;35.56;37.40;99790.09;1717258;82;21517;-63
2022/08/04 05:44:11;;;;;;;5.40;2.20;;;;;;;35.70;36.84;99783.36;1722286;82;20942;-63
2022/08/04 05:46:39;;;;;;;10.18;2.52;;;;;;;35.69;36.56;99784.44;1718209;82;21035;-63
2022/08/04 05:49:08;;;;;;;4.65;2.22;;;;;;;35.79;35.93;99784.66;1727904;82;21055;-63
2022/08/04 05:51:35;;;;;;;9.63;2.52;;;;;;;35.71;35.57;99786.39;1724747;82;20974;-63
2022/08/04 05:54:04;;;;;;;6.90;2.47;;;;;;;35.73;35.18;99787.50;1720271;82;21544;-63
2022/08/04 05:56:33;;;;;;;10.03;2.40;;;;;;;35.65;34.94;99785.95;1716496;82;20975;-63
2022/08/04 05:59:03;;;;;;;9.13;1.65;;;;;;;35.63;34.48;99785.38;1725727;82;20888;-63
2022/08/04 06:01:30;;;;;;;10.50;2.08;;;;;;;35.62;34.34;99791.86;1710807;81;21010;-63
2022/08/04 06:03:59;;;;;;;4.72;2.27;;;;;;;35.88;34.46;99788.37;1714214;82;21466;-63
2022/08/04 06:06:27;;;;;;;6.97;2.05;;;;;;;36.10;33.87;99792.70;1716423;82;21025;-63
2022/08/04 06:08:54;;;;;;;5.75;1.87;;;;;;;36.15;33.64;99787.38;1717390;82;21988;-63
2022/08/04 06:11:22;;;;;;;14.83;2.55;;;;;;;36.30;33.41;99789.09;1713072;82;20979;-62
2022/08/04 06:13:59;;;;;;;9.00;2.20;;;;;;;36.33;33.16;99794.05;1716190;82;21135;-63
2022/08/04 06:16:37;;;;;;;7.00;2.37;;;;;;;36.47;33.04;99787.27;1713088;82;20968;-63
2022/08/04 06:19:10;;;;;;;5.67;2.30;;;;;;;36.53;32.71;99792.30;1711974;82;20918;-64
2022/08/04 06:21:42;;;;;;;9.05;2.77;;;;;;;36.57;32.39;99790.73;1723321;82;21468;-60
2022/08/04 06:24:13;;;;;;;2.52;2.15;;;;;;;36.44;32.16;99790.98;1715495;82;21472;-63
2022/08/04 06:26:41;;;;;;;6.80;2.40;;;;;;;36.43;31.86;99787.44;1717526;82;21068;-65
2022/08/04 06:29:16;;;;;;;3.52;2.12;;;;;;;36.48;31.78;99790.80;1709851;82;20922;-63
2022/08/04 06:31:56;;;;;;;2.67;2.00;;;;;;;36.64;31.86;99791.44;1711886;82;20942;-63
2022/08/04 06:34:17;;;;;;;7.80;2.65;;;;;;;36.92;31.59;99793.88;1719129;82;20942;-64
2022/08/04 06:36:46;;;;;;;15.28;3.22;;;;;;;36.86;31.49;99790.73;1719063;82;20985;-63
2022/08/04 06:39:13;;;;;;;7.15;2.58;;;;;;;36.99;31.38;99790.45;1719709;82;21001;-63
2022/08/04 06:41:40;;;;;;;8.25;2.33;;;;;;;36.98;31.00;99783.36;1713252;82;20861;-64
2022/08/04 06:44:09;;;;;;;7.80;2.42;;;;;;;36.87;30.88;99793.77;1714334;82;20943;-64
2022/08/04 06:46:40;;;;;;;10.45;2.17;;;;;;;36.74;30.86;99790.25;1721092;82;20962;-63
2022/08/04 06:49:07;;;;;;;8.30;2.55;;;;;;;36.61;30.61;99789.20;1715961;82;20944;-63
2022/08/04 06:51:36;;;;;;;8.20;2.20;;;;;;;36.24;30.37;99786.80;1713447;82;21285;-62
2022/08/04 06:54:04;;;;;;;4.50;2.33;;;;;;;36.11;30.53;99791.12;1718620;82;21001;-61
2022/08/04 06:56:34;;;;;;;7.75;2.20;;;;;;;36.20;30.50;99790.22;1717323;82;21001;-62
2022/08/04 06:59:02;;;;;;;8.15;1.95;;;;;;;36.31;30.48;99789.37;1721522;82;20946;-62
2022/08/04 07:01:30;;;;;;;5.10;2.20;;;;;;;36.36;30.20;99798.17;1716791;81;21020;-62
2022/08/04 07:03:58;;;;;;;6.90;2.22;;;;;;;36.50;30.47;99791.39;1717060;82;22008;-62
2022/08/04 07:06:25;;;;;;;4.70;1.80;;;;;;;36.76;30.43;99791.92;1717777;82;20952;-62
2022/08/04 07:08:53;;;;;;;3.50;2.00;;;;;;;36.82;29.97;99792.31;1716565;82;21590;-62
2022/08/04 07:11:20;;;;;;;4.85;2.22;;;;;;;36.76;30.08;99796.01;1712705;82;20961;-60
2022/08/04 07:13:49;;;;;;;3.30;1.85;;;;;;;36.84;29.84;99800.52;1717536;82;20971;-66
2022/08/04 07:16:18;;;;;;;6.75;1.77;;;;;;;36.94;29.84;99805.31;1721583;82;21895;-63
2022/08/04 07:18:47;;;;;;;4.72;2.20;;;;;;;37.08;29.81;99794.45;1717529;81;20898;-63
2022/08/04 07:21:22;;;;;;;4.78;2.10;;;;;;;36.89;29.75;99798.44;1716010;82;20967;-62
2022/08/04 07:23:49;;;;;;;6.47;1.80;;;;;;;36.79;29.56;99800.96;1714303;82;20928;-62
2022/08/04 07:26:18;;;;;;;3.42;2.00;;;;;;;36.54;29.42;99799.38;1718916;82;20934;-63
2022/08/04 07:28:46;;;;;;;4.60;1.98;;;;;;;36.26;29.29;99800.12;1716366;82;21121;-61
2022/08/04 07:31:17;;;;;;;7.75;2.10;;;;;;;35.94;29.32;99801.03;1714159;82;20973;-62
2022/08/04 07:33:44;;;;;;;32.33;5.20;;;;;;;35.55;29.40;99800.63;1706449;82;20913;-62
2022/08/04 07:36:12;;;;;;;9.28;3.40;;;;;;;35.25;29.38;99797.44;1715958;82;21465;-62
2022/08/04 07:38:41;;;;;;;43.08;33.23;;;;;;;35.04;29.43;99796.56;1719810;82;20974;-62
2022/08/04 07:41:08;;;;;;;23.18;10.58;;;;;;;34.72;29.49;99794.09;1716295;82;21522;-62
2022/08/04 07:43:39;;;;;;;6.45;2.70;;;;;;;34.62;29.69;99791.08;1714476;82;20955;-62
2022/08/04 07:46:06;;;;;;;4.92;2.35;;;;;;;34.43;29.52;99799.22;1719778;81;20931;-61
2022/08/04 07:48:34;;;;;;;11.93;2.37;;;;;;;34.14;29.61;99793.19;1718411;82;21819;-61
2022/08/04 07:51:01;;;;;;;4.67;2.50;;;;;;;33.82;29.87;99791.39;1713871;82;20954;-62
2022/08/04 07:53:28;;;;;;;7.30;2.00;;;;;;;33.72;30.04;99793.77;1718466;82;21055;-61
2022/08/04 07:55:55;;;;;;;10.72;2.30;;;;;;;33.72;30.04;99791.59;1716587;82;20969;-61
2022/08/04 07:58:22;;;;;;;8.90;2.60;;;;;;;33.60;30.11;99788.25;1715878;82;21537;-61
2022/08/04 08:00:50;;;;;;;7.25;2.77;;;;;;;33.67;30.44;99787.36;1715721;82;21511;-63
2022/08/04 08:03:19;;;;;;;3.55;2.17;;;;;;;33.60;30.49;99796.38;1711405;82;20888;-62
2022/08/04 08:05:46;;;;;;;8.08;2.50;;;;;;;33.54;30.31;99795.91;1714559;81;21191;-61
2022/08/04 08:08:14;;;;;;;28.15;4.70;;;;;;;33.50;30.67;99794.67;1711349;82;20986;-61
2022/08/04 08:10:48;;;;;;;5.90;2.58;;;;;;;33.47;30.64;99795.13;1707412;82;20960;-61
2022/08/04 08:13:17;;;;;;;6.40;2.92;;;;;;;33.40;30.72;99797.03;1721611;82;20971;-61
2022/08/04 08:15:45;;;;;;;9.28;2.60;;;;;;;33.33;30.76;99800.30;1715692;82;20958;-61
2022/08/04 08:18:12;;;;;;;5.20;2.10;;;;;;;33.28;30.93;99798.80;1710002;81;21023;-61
2022/08/04 08:20:39;;;;;;;4.20;2.00;;;;;;;33.36;30.91;99795.83;1720406;82;21017;-61
2022/08/04 08:23:07;;;;;;;4.37;2.27;;;;;;;33.24;30.92;99798.92;1716949;81;20966;-63
2022/08/04 08:25:37;;;;;;;3.33;2.20;;;;;;;33.19;30.94;99796.36;1718503;82;20956;-61
2022/08/04 08:28:06;;;;;;;3.02;2.05;;;;;;;33.04;30.98;99794.46;1692700;82;21001;-61
2022/08/04 08:30:37;;;;;;;4.62;2.02;;;;;;;32.86;30.99;99797.05;1709573;82;21101;-61
2022/08/04 08:33:10;;;;;;;9.30;3.00;;;;;;;32.80;31.36;99791.12;1711647;82;21970;-61
2022/08/04 08:36:08;;;;;;;5.72;2.80;;;;;;;32.86;31.28;99794.34;1717633;82;21521;-61
2022/08/04 08:38:56;;;;;;;3.42;2.70;;;;;;;32.92;31.33;99790.77;1713883;82;21496;-61
2022/08/04 08:42:00;;;;;;;2.83;2.22;;;;;;;32.90;31.43;99795.55;1711365;81;20920;-61
2022/08/04 08:44:55;;;;;;;6.60;2.55;;;;;;;32.92;31.46;99796.17;1715137;82;21081;-61
2022/08/04 08:47:59;;;;;;;6.73;2.40;;;;;;;32.88;31.42;99794.94;1644864;85;21054;-61
2022/08/04 08:51:00;;;;;;;7.03;2.15;;;;;;;32.83;31.49;99797.48;1644763;85;20970;-61
2022/08/04 08:53:53;;;;;;;2.58;1.95;;;;;;;32.80;31.60;99797.89;1640021;85;20986;-61
2022/08/04 08:56:39;;;;;;;5.47;2.47;;;;;;;32.80;31.63;99792.48;1642759;85;20970;-61
2022/08/04 08:59:29;;;;;;;5.10;2.20;;;;;;;32.99;31.87;99794.25;1641312;85;21052;-60
2022/08/04 09:02:35;;;;;;;7.28;2.47;;;;;;;33.06;31.81;99795.08;1646203;85;21627;-61
2022/08/04 09:05:38;;;;;;;9.20;2.50;;;;;;;33.04;31.90;99795.81;1643528;85;21535;-61
2022/08/04 09:08:29;;;;;;;2.70;2.20;;;;;;;33.13;31.99;99787.73;1638184;86;20957;-61
2022/08/04 09:11:09;;;;;;;4.60;2.12;;;;;;;33.15;31.87;99791.06;1617013;86;21051;-61
2022/08/04 09:13:59;;;;;;;5.00;3.55;;;;;;;33.10;31.88;99788.17;1606862;87;21130;-61
2022/08/04 09:16:53;;;;;;;24.32;4.95;;;;;;;33.16;31.95;99790.03;1612405;86;21599;-61
2022/08/04 09:19:30;;;;;;;7.85;3.25;;;;;;;33.14;31.92;99791.30;1585342;89;20994;-61
2022/08/04 09:22:14;;;;;;;10.93;3.83;;;;;;;33.06;31.83;99783.44;1576799;90;21008;-61
2022/08/04 09:24:49;;;;;;;7.53;2.80;;;;;;;32.97;32.03;99779.61;1587853;89;21568;-61
2022/08/04 09:27:21;;;;;;;5.87;2.50;;;;;;;33.08;32.11;99778.62;1564895;90;21233;-61
2022/08/04 09:30:08;;;;;;;9.00;2.58;;;;;;;33.23;32.24;99778.33;1577348;89;21494;-61
2022/08/04 09:33:01;;;;;;;12.95;2.83;;;;;;;33.30;32.01;99779.09;1590172;88;21034;-61
2022/08/04 09:35:47;;;;;;;12.15;3.42;;;;;;;33.15;32.06;99780.23;1588760;88;21007;-61
2022/08/04 09:38:25;;;;;;;8.08;2.15;;;;;;;33.19;32.15;99776.06;1564934;90;21102;-64
2022/08/04 09:41:02;;;;;;;147.43;20.97;;;;;;;33.20;32.22;99775.01;1590857;89;21663;-62
2022/08/04 09:44:04;;;;;;;14.90;4.40;;;;;;;33.16;32.27;99771.09;1592136;88;22092;-62
2022/08/04 09:46:55;;;;;;;6.10;2.80;;;;;;;33.23;32.33;99770.21;1568111;90;21003;-64
2022/08/04 09:49:35;;;;;;;2.90;2.62;;;;;;;33.31;32.30;99761.83;1617182;86;21579;-61
2022/08/04 09:52:22;;;;;;;4.00;2.08;;;;;;;33.18;32.25;99763.57;1606714;87;20998;-63
2022/08/04 09:55:00;;;;;;;4.47;1.98;;;;;;;33.18;32.22;99770.86;1616204;87;21062;-63
2022/08/04 09:58:03;;;;;;;5.65;1.80;;;;;;;33.11;32.13;99773.63;1683982;84;20965;-63
2022/08/04 10:00:42;;;;;;;5.42;2.47;;;;;;;33.13;32.21;99767.45;1685530;84;20915;-62
2022/08/04 10:03:14;;;;;;;11.40;3.17;;;;;;;33.25;32.30;99761.36;1693125;83;20959;-61
2022/08/04 10:06:16;;;;;;;7.95;2.02;;;;;;;33.26;32.30;99759.77;1706782;83;20933;-63
2022/08/04 10:08:57;;;;;;;5.10;2.40;;;;;;;33.23;32.14;99755.33;1690945;83;21087;-65
2022/08/04 10:11:35;;;;;;;6.45;2.35;;;;;;;33.20;32.29;99758.77;1699696;83;21593;-64
2022/08/04 10:14:16;;;;;;;2.87;2.00;;;;;;;33.25;32.25;99760.83;1694521;83;21546;-61
2022/08/04 10:17:11;;;;;;;5.35;2.22;;;;;;;33.34;32.36;99766.80;1693787;83;21471;-61
2022/08/04 10:19:41;;;;;;;8.78;2.45;;;;;;;33.29;32.08;99755.27;1698850;83;20951;-61
2022/08/04 10:22:34;;;;;;;5.25;2.22;;;;;;;33.23;32.28;99754.80;1720797;81;21071;-61
2022/08/04 10:25:18;;;;;;;8.20;2.42;;;;;;;33.33;32.36;99754.30;1722730;82;20919;-61
2022/08/04 10:27:52;;;;;;;5.42;2.52;;;;;;;33.37;32.26;99755.53;1719255;82;20946;-61
2022/08/04 10:30:20;;;;;;;5.30;2.35;;;;;;;33.33;32.40;99751.59;1709340;83;21480;-61
2022/08/04 10:33:13;;;;;;;10.08;2.33;;;;;;;33.39;32.20;99753.44;1713535;83;20900;-61
2022/08/04 10:35:56;;;;;;;6.08;2.33;;;;;;;33.34;32.35;99756.80;1707503;82;21066;-61
2022/08/04 10:38:52;;;;;;;9.03;2.65;;;;;;;33.41;32.27;99755.38;1691897;83;20932;-61
2022/08/04 10:41:39;;;;;;;;;;;;;;;33.39;32.25;99750.73;1704106;83;21953;-62
2022/08/04 10:44:44;;;;;;;3.10;2.02;;;;;;;33.34;32.15;99753.27;1704869;81;21129;-61
2022/08/04 10:47:19;;;;;;;7.95;2.62;;;;;;;33.30;32.27;99747.48;1724065;81;20909;-61
2022/08/04 10:49:58;;;;;;;3.98;2.30;;;;;;;33.08;32.05;99755.13;1720554;81;21094;-61
2022/08/04 10:52:45;;;;;;;11.45;2.60;;;;;;;32.94;32.23;99758.94;1708918;83;20927;-62
2022/08/04 10:55:38;;;;;;;9.65;2.30;;;;;;;33.05;32.46;99750.16;1712776;82;21475;-61
2022/08/04 10:58:08;;;;;;;4.12;2.50;;;;;;;33.15;32.33;99753.19;1690731;84;21020;-61
2022/08/04 11:00:39;;;;;;;3.25;2.05;;;;;;;33.19;32.39;99749.02;1687100;84;21115;-61
2022/08/04 11:03:14;;;;;;;9.43;2.30;;;;;;;33.33;32.52;99748.89;1687844;82;21056;-61
2022/08/04 11:05:57;;;;;;;5.58;2.30;;;;;;;33.33;32.32;99743.48;1698534;82;21037;-62
2022/08/04 11:08:38;;;;;;;5.37;2.50;;;;;;;33.21;32.20;99737.42;1688279;84;20992;-61
2022/08/04 11:11:39;;;;;;;11.35;3.58;;;;;;;33.05;32.15;99732.58;1662899;84;21448;-61
2022/08/04 11:14:11;;;;;;;5.42;2.55;;;;;;;32.93;32.12;99736.98;1644135;85;21059;-61
2022/08/04 11:16:51;;;;;;;4.97;2.62;;;;;;;32.83;32.06;99729.89;1698780;82;21782;-61
2022/08/04 11:20:02;;;;;;;5.08;3.35;;;;;;;32.73;32.13;99736.58;1666792;82;20966;-61
2022/08/04 11:22:29;;;;;;;8.28;2.92;;;;;;;32.76;32.31;99728.03;1692398;82;20988;-61
2022/08/04 11:25:20;;;;;;;4.55;2.42;;;;;;;32.96;32.35;99728.42;1695930;82;21105;-62
2022/08/04 11:28:10;;;;;;;4.85;2.17;;;;;;;32.97;32.28;99726.05;1687711;83;21521;-61
2022/08/04 11:30:48;;;;;;;10.85;2.70;;;;;;;33.00;32.52;99724.28;1649050;85;21042;-62
2022/08/04 11:33:36;;;;;;;3.52;2.52;;;;;;;33.17;32.41;99724.05;1686395;82;20926;-62
2022/08/04 11:36:23;;;;;;;3.70;3.02;;;;;;;33.18;32.33;99705.41;1717208;82;20991;-62
2022/08/04 11:39:10;;;;;;;3.77;2.20;;;;;;;33.09;32.38;99729.72;1735910;81;21061;-63
2022/08/04 11:41:54;;;;;;;5.53;2.17;;;;;;;33.16;32.40;99727.81;1721363;82;20927;-63
2022/08/04 11:44:38;;;;;;;5.92;2.75;;;;;;;33.13;32.28;99728.22;1715486;82;21081;-62
2022/08/04 11:47:10;;;;;;;5.72;3.00;;;;;;;33.04;32.33;99726.02;1717417;82;20950;-62
2022/08/04 11:49:48;;;;;;;6.47;3.65;;;;;;;33.08;32.36;99721.31;1722536;81;21050;-62
2022/08/04 11:52:18;;;;;;;5.15;2.87;;;;;;;33.15;32.36;99720.73;1717244;82;20907;-62
2022/08/04 11:54:46;;;;;;;8.15;2.58;;;;;;;33.27;32.43;99720.02;1709769;82;21024;-63
2022/08/04 11:57:13;;;;;;;5.08;3.20;;;;;;;33.36;32.37;99719.53;1722869;82;21038;-63
2022/08/04 11:59:42;;;;;;;13.05;6.03;;;;;;;33.47;32.37;99724.75;1713514;82;20900;-61
2022/08/04 12:02:40;;;;;;;5.85;2.72;;;;;;;33.48;32.24;99712.86;1713615;82;21843;-62
2022/08/04 12:05:09;;;;;;;4.87;2.65;;;;;;;33.35;32.02;99717.03;1638815;85;21532;-62
2022/08/04 12:08:01;;;;;;;5.60;2.60;;;;;;;33.23;31.93;99716.11;1636095;85;20989;-62
2022/08/04 12:10:46;;;;;;;19.95;4.62;;;;;;;33.18;31.98;99717.58;1638467;85;22046;-62
2022/08/04 12:13:43;;;;;;;13.08;3.15;;;;;;;33.13;32.03;99719.28;1651242;85;20922;-62
2022/08/04 12:16:15;;;;;;;4.83;2.70;;;;;;;33.25;32.07;99719.42;1634007;85;20994;-63
2022/08/04 12:19:05;;;;;;;5.10;2.70;;;;;;;33.40;32.12;99714.49;1636790;85;21029;-62
2022/08/04 12:21:52;;;;;;;5.70;2.60;;;;;;;33.42;32.07;99718.64;1645536;85;20897;-62
2022/08/04 12:24:21;;;;;;;5.20;3.00;;;;;;;33.38;31.82;99708.47;1627384;87;21075;-61
2022/08/04 12:26:52;;;;;;;7.95;3.08;;;;;;;33.13;31.61;99714.70;1600937;88;20981;-61
2022/08/04 12:29:22;;;;;;;7.58;3.10;;;;;;;33.10;31.91;99707.03;1611825;86;21602;-61
2022/08/04 12:31:54;;;;;;;7.37;2.30;;;;;;;33.18;32.01;99707.28;1646002;85;21008;-63
2022/08/04 12:34:42;;;;;;;5.62;3.08;;;;;;;33.38;32.08;99700.34;1639698;85;21031;-61
2022/08/04 12:37:26;;;;;;;9.43;2.80;;;;;;;33.52;32.05;99701.91;1627320;86;21217;-61
2022/08/04 12:39:59;;;;;;;7.75;3.33;;;;;;;33.61;31.90;99705.16;1631996;85;38819;-61